Aalten, Netherlands
Current Conditions -  °F | °C
As of 4:50 PM on Saturday 25 Oct 2014 (Local Time) from EDLV Reporting Station
Haze Haze  
Wind Chill: 57°   Ceiling: 1200
Heat Index: 57°   Visibility: 2.6mi
Dew Point: 57°   Wind: 6mph
Humidity: 100%   Direction: 200°SSW
Pressure: 30.09"   Gusts: NA
Location:  51.93°N, 6.58°E
Report Text: EDLV 251450Z 20005KT 160V250 4300 BR SCT005 BKN012 14/14 Q1019
Loading
Personal Weather Stations






























Interactive Weather Map
Tropical Storm Tracking
New forecast layout! Learn more

10-Day Weather Forecast

Advertisements
Track Severe Weather on mobile